KAQW

Harriman-And-West Airport

North Adams, Massachusetts, USA
METAR KAQW 231052Z AUTO 34003KT 10SM OVC016 14/13 A2992 RMK AO2 RAE0959 SLP132 P0000 T01440133
Observed Flight Rules
May-23 @ 10:52 UTC (20 minutes ago) Marginal Visual Flight Rules
Wind Visibility Clouds
340° at 3 knots 10 miles
  • Overcast at 1,600' AGL
Temperatures Readings Precipitation
Current 14°C / 57°F
Dewpoint 13°C / 55°F
Humidity 94%
Altimeter 29.92" Hg
Pressure 1013.2 hPa
Elevation 199
Current Rain 0.005
METAR KAQW 231052Z AUTO 34003KT 10SM OVC016 14/13 A2992 RMK AO2 RAE0959 SLP132 P0000 T01440133
Observed Flight Rules
May-23 @ 10:52 UTC
(20 minutes ago)
MVFR
Wind Visibility
340° at 3 knots 10 miles
Clouds
  • Overcast at 1,600' AGL
Temperature Dewpoint
14°C / 57°F 13°C / 55°F
Humidity Altimeter Pressure
94% 29.92" Hg 1013.2 hPa
Current Rain
0.005